sensor_id;sensor_type;location;lat;lon;timestamp;pressure;altitude;pressure_sealevel;temperature;humidity
65666;BME280;52365;47.464;18.976;2023-06-19T00:00:17;99719.19;;;18.72;61.53
65666;BME280;52365;47.464;18.976;2023-06-19T00:00:38;99721.41;;;18.73;61.47
65666;BME280;52365;47.464;18.976;2023-06-19T00:01:00;99719.19;;;18.72;61.44
65666;BME280;52365;47.464;18.976;2023-06-19T00:01:21;99721.84;;;18.77;61.37
65666;BME280;52365;47.464;18.976;2023-06-19T00:01:42;99726.31;;;18.80;61.21
65666;BME280;52365;47.464;18.976;2023-06-19T00:02:03;99720.38;;;18.76;61.22
65666;BME280;52365;47.464;18.976;2023-06-19T00:02:24;99716.91;;;18.76;61.25
65666;BME280;52365;47.464;18.976;2023-06-19T00:02:45;99714.94;;;18.76;61.27
65666;BME280;52365;47.464;18.976;2023-06-19T00:03:07;99719.37;;;18.79;61.23
65666;BME280;52365;47.464;18.976;2023-06-19T00:03:28;99717.88;;;18.78;61.27
65666;BME280;52365;47.464;18.976;2023-06-19T00:03:49;99724.38;;;18.75;61.36
65666;BME280;52365;47.464;18.976;2023-06-19T00:04:10;99713.00;;;18.71;61.50
65666;BME280;52365;47.464;18.976;2023-06-19T00:04:31;99715.97;;;18.68;61.61
65666;BME280;52365;47.464;18.976;2023-06-19T00:04:52;99713.97;;;18.68;61.71
65666;BME280;52365;47.464;18.976;2023-06-19T00:05:13;99719.25;;;18.60;62.03
65666;BME280;52365;47.464;18.976;2023-06-19T00:05:34;99710.09;;;18.58;62.18
65666;BME280;52365;47.464;18.976;2023-06-19T00:05:55;99716.84;;;18.51;62.49
65666;BME280;52365;47.464;18.976;2023-06-19T00:06:16;99713.16;;;18.49;62.63
65666;BME280;52365;47.464;18.976;2023-06-19T00:06:37;99712.59;;;18.56;62.47
65666;BME280;52365;47.464;18.976;2023-06-19T00:07:03;99716.75;;;18.62;62.20
65666;BME280;52365;47.464;18.976;2023-06-19T00:07:25;99718.25;;;18.63;62.07
65666;BME280;52365;47.464;18.976;2023-06-19T00:07:46;99723.41;;;18.67;61.99
65666;BME280;52365;47.464;18.976;2023-06-19T00:08:07;99716.97;;;18.70;61.89
65666;BME280;52365;47.464;18.976;2023-06-19T00:08:28;99719.91;;;18.72;61.83
65666;BME280;52365;47.464;18.976;2023-06-19T00:08:49;99718.44;;;18.71;61.82
65666;BME280;52365;47.464;18.976;2023-06-19T00:09:10;99716.47;;;18.72;61.84
65666;BME280;52365;47.464;18.976;2023-06-19T00:09:32;99716.84;;;18.81;61.66
65666;BME280;52365;47.464;18.976;2023-06-19T00:09:53;99718.06;;;18.86;61.40
65666;BME280;52365;47.464;18.976;2023-06-19T00:10:14;99710.38;;;18.84;61.32
65666;BME280;52365;47.464;18.976;2023-06-19T00:10:36;99714.06;;;18.87;61.28
65666;BME280;52365;47.464;18.976;2023-06-19T00:10:57;99719.97;;;18.91;61.16
65666;BME280;52365;47.464;18.976;2023-06-19T00:11:18;99715.56;;;18.88;61.13
65666;BME280;52365;47.464;18.976;2023-06-19T00:11:39;99718.56;;;18.84;61.23
65666;BME280;52365;47.464;18.976;2023-06-19T00:12:00;99714.38;;;18.83;61.28
65666;BME280;52365;47.464;18.976;2023-06-19T00:12:22;99714.38;;;18.83;61.29
65666;BME280;52365;47.464;18.976;2023-06-19T00:12:43;99711.41;;;18.81;61.32
65666;BME280;52365;47.464;18.976;2023-06-19T00:13:04;99723.78;;;18.82;61.33
65666;BME280;52365;47.464;18.976;2023-06-19T00:13:25;99718.06;;;18.86;61.22
65666;BME280;52365;47.464;18.976;2023-06-19T00:13:46;99717.09;;;18.83;61.17
65666;BME280;52365;47.464;18.976;2023-06-19T00:14:07;99717.41;;;18.74;61.42
65666;BME280;52365;47.464;18.976;2023-06-19T00:14:28;99715.19;;;18.73;61.53
65666;BME280;52365;47.464;18.976;2023-06-19T00:14:49;99718.37;;;18.77;61.49
65666;BME280;52365;47.464;18.976;2023-06-19T00:15:10;99702.25;;;18.79;61.34
65666;BME280;52365;47.464;18.976;2023-06-19T00:15:31;99714.69;;;18.74;61.40
65666;BME280;52365;47.464;18.976;2023-06-19T00:15:52;99706.50;;;18.74;61.43
65666;BME280;52365;47.464;18.976;2023-06-19T00:16:13;99711.94;;;18.74;61.46
65666;BME280;52365;47.464;18.976;2023-06-19T00:16:34;99716.12;;;18.81;61.37
65666;BME280;52365;47.464;18.976;2023-06-19T00:16:56;99712.06;;;18.87;61.17
65666;BME280;52365;47.464;18.976;2023-06-19T00:17:17;99715.03;;;18.90;61.06
65666;BME280;52365;47.464;18.976;2023-06-19T00:17:38;99709.59;;;18.90;61.06
65666;BME280;52365;47.464;18.976;2023-06-19T00:17:59;99710.56;;;18.92;61.01
65666;BME280;52365;47.464;18.976;2023-06-19T00:18:20;99714.75;;;18.93;60.96
65666;BME280;52365;47.464;18.976;2023-06-19T00:18:41;99715.72;;;18.96;60.88
65666;BME280;52365;47.464;18.976;2023-06-19T00:19:02;99720.16;;;18.99;60.78
65666;BME280;52365;47.464;18.976;2023-06-19T00:19:24;99710.72;;;19.00;60.71
65666;BME280;52365;47.464;18.976;2023-06-19T00:19:45;99712.44;;;19.03;60.65
65666;BME280;52365;47.464;18.976;2023-06-19T00:20:06;99714.59;;;19.10;60.52
65666;BME280;52365;47.464;18.976;2023-06-19T00:20:28;99705.59;;;19.15;60.37
65666;BME280;52365;47.464;18.976;2023-06-19T00:20:49;99718.72;;;19.17;60.29
65666;BME280;52365;47.464;18.976;2023-06-19T00:21:10;99714.25;;;19.19;60.30
65666;BME280;52365;47.464;18.976;2023-06-19T00:21:31;99714.78;;;19.36;59.87
65666;BME280;52365;47.464;18.976;2023-06-19T00:21:52;99712.06;;;19.36;59.67
65666;BME280;52365;47.464;18.976;2023-06-19T00:22:18;99711.06;;;19.34;59.76
65666;BME280;52365;47.464;18.976;2023-06-19T00:22:40;99714.34;;;19.32;59.80
65666;BME280;52365;47.464;18.976;2023-06-19T00:23:01;99715.72;;;19.64;59.51
65666;BME280;52365;47.464;18.976;2023-06-19T00:23:23;99709.28;;;20.44;57.18
65666;BME280;52365;47.464;18.976;2023-06-19T00:23:44;99716.97;;;20.91;55.48
65666;BME280;52365;47.464;18.976;2023-06-19T00:24:05;99713.72;;;21.32;53.99
65666;BME280;52365;47.464;18.976;2023-06-19T00:24:21;99715.06;;;21.52;53.11
65666;BME280;52365;47.464;18.976;2023-06-19T00:24:42;99716.81;;;21.63;52.67
65666;BME280;52365;47.464;18.976;2023-06-19T00:25:04;99718.94;;;21.70;52.30
65666;BME280;52365;47.464;18.976;2023-06-19T00:25:25;99727.13;;;21.83;51.93
65666;BME280;52365;47.464;18.976;2023-06-19T00:25:46;99714.62;;;21.96;51.46
65666;BME280;52365;47.464;18.976;2023-06-19T00:26:07;99724.66;;;21.93;51.28
65666;BME280;52365;47.464;18.976;2023-06-19T00:26:28;99722.69;;;21.80;51.57
65666;BME280;52365;47.464;18.976;2023-06-19T00:26:49;99718.94;;;21.70;51.65
65666;BME280;52365;47.464;18.976;2023-06-19T00:27:10;99712.81;;;21.64;51.92
65666;BME280;52365;47.464;18.976;2023-06-19T00:27:31;99712.91;;;21.72;51.77
65666;BME280;52365;47.464;18.976;2023-06-19T00:27:52;99721.53;;;21.76;51.63
65666;BME280;52365;47.464;18.976;2023-06-19T00:28:13;99711.37;;;21.50;51.79
65666;BME280;52365;47.464;18.976;2023-06-19T00:28:34;99720.03;;;20.74;53.72
65666;BME280;52365;47.464;18.976;2023-06-19T00:28:56;99713.56;;;20.26;55.31
65666;BME280;52365;47.464;18.976;2023-06-19T00:29:17;99720.06;;;20.23;56.19
65666;BME280;52365;47.464;18.976;2023-06-19T00:29:38;99720.44;;;20.65;55.23
65666;BME280;52365;47.464;18.976;2023-06-19T00:29:59;99716.88;;;20.97;54.30
65666;BME280;52365;47.464;18.976;2023-06-19T00:30:22;99719.50;;;20.89;53.88
65666;BME280;52365;47.464;18.976;2023-06-19T00:30:44;99717.47;;;19.99;56.09
65666;BME280;52365;47.464;18.976;2023-06-19T00:31:05;99719.25;;;19.58;57.61
65666;BME280;52365;47.464;18.976;2023-06-19T00:31:28;99711.91;;;19.48;58.28
65666;BME280;52365;47.464;18.976;2023-06-19T00:31:49;99712.37;;;19.71;58.09
65666;BME280;52365;47.464;18.976;2023-06-19T00:32:10;99724.28;;;19.30;58.72
65666;BME280;52365;47.464;18.976;2023-06-19T00:32:30;99721.88;;;19.02;59.67
65666;BME280;52365;47.464;18.976;2023-06-19T00:32:51;99714.97;;;18.95;60.19
65666;BME280;52365;47.464;18.976;2023-06-19T00:33:14;99716.50;;;18.91;60.49
65666;BME280;52365;47.464;18.976;2023-06-19T00:33:35;99714.03;;;18.93;60.49
65666;BME280;52365;47.464;18.976;2023-06-19T00:33:56;99715.50;;;18.94;60.55
65666;BME280;52365;47.464;18.976;2023-06-19T00:34:17;99725.50;;;18.85;60.67
65666;BME280;52365;47.464;18.976;2023-06-19T00:34:38;99721.41;;;18.73;61.00
65666;BME280;52365;47.464;18.976;2023-06-19T00:34:59;99722.69;;;18.67;61.31
65666;BME280;52365;47.464;18.976;2023-06-19T00:35:21;99714.72;;;18.69;61.39
65666;BME280;52365;47.464;18.976;2023-06-19T00:35:42;99718.56;;;18.54;61.90
65666;BME280;52365;47.464;18.976;2023-06-19T00:36:09;99723.34;;;18.48;62.18
65666;BME280;52365;47.464;18.976;2023-06-19T00:36:30;99720.09;;;18.50;62.25
65666;BME280;52365;47.464;18.976;2023-06-19T00:36:52;99722.78;;;18.55;62.23
65666;BME280;52365;47.464;18.976;2023-06-19T00:37:16;99723.22;;;18.59;62.10
65666;BME280;52365;47.464;18.976;2023-06-19T00:37:37;99724.75;;;18.55;62.19
65666;BME280;52365;47.464;18.976;2023-06-19T00:37:58;99719.31;;;18.55;62.24
65666;BME280;52365;47.464;18.976;2023-06-19T00:38:22;99711.13;;;18.55;62.30
65666;BME280;52365;47.464;18.976;2023-06-19T00:38:44;99726.56;;;18.47;62.50
65666;BME280;52365;47.464;18.976;2023-06-19T00:39:06;99718.66;;;18.43;62.65
65666;BME280;52365;47.464;18.976;2023-06-19T00:39:28;99718.94;;;18.40;62.80
65666;BME280;52365;47.464;18.976;2023-06-19T00:39:49;99716.44;;;18.42;62.82
65666;BME280;52365;47.464;18.976;2023-06-19T00:40:16;99717.22;;;18.36;62.93
65666;BME280;52365;47.464;18.976;2023-06-19T00:40:40;99717.22;;;18.36;63.02
65666;BME280;52365;47.464;18.976;2023-06-19T00:41:01;99718.47;;;18.35;63.08
65666;BME280;52365;47.464;18.976;2023-06-19T00:41:22;99723.75;;;18.28;63.15
65666;BME280;52365;47.464;18.976;2023-06-19T00:41:44;99717.28;;;18.25;63.28
65666;BME280;52365;47.464;18.976;2023-06-19T00:42:05;99714.34;;;18.23;63.32
65666;BME280;52365;47.464;18.976;2023-06-19T00:42:26;99720.75;;;18.31;63.18
65666;BME280;52365;47.464;18.976;2023-06-19T00:42:47;99721.94;;;18.36;63.00
65666;BME280;52365;47.464;18.976;2023-06-19T00:43:09;99715.97;;;18.37;62.87
65666;BME280;52365;47.464;18.976;2023-06-19T00:43:30;99717.72;;;18.71;62.34
65666;BME280;52365;47.464;18.976;2023-06-19T00:43:51;99724.22;;;18.62;61.93
65666;BME280;52365;47.464;18.976;2023-06-19T00:44:14;99718.63;;;18.49;62.20
65666;BME280;52365;47.464;18.976;2023-06-19T00:44:35;99715.75;;;18.35;62.61
65666;BME280;52365;47.464;18.976;2023-06-19T00:44:56;99716.50;;;18.36;62.73
65666;BME280;52365;47.464;18.976;2023-06-19T00:45:17;99723.47;;;18.31;62.91
65666;BME280;52365;47.464;18.976;2023-06-19T00:45:38;99717.75;;;18.35;62.90
65666;BME280;52365;47.464;18.976;2023-06-19T00:46:00;99719.69;;;18.40;62.76
65666;BME280;52365;47.464;18.976;2023-06-19T00:46:21;99724.34;;;18.45;62.65
65666;BME280;52365;47.464;18.976;2023-06-19T00:46:43;99721.09;;;18.47;62.54
65666;BME280;52365;47.464;18.976;2023-06-19T00:47:04;99710.19;;;19.26;61.04
65666;BME280;52365;47.464;18.976;2023-06-19T00:47:25;99708.31;;;19.77;59.03
65666;BME280;52365;47.464;18.976;2023-06-19T00:47:46;99710.50;;;20.17;57.57
65666;BME280;52365;47.464;18.976;2023-06-19T00:48:07;99712.88;;;20.39;56.55
65666;BME280;52365;47.464;18.976;2023-06-19T00:48:30;99708.91;;;20.53;55.98
65666;BME280;52365;47.464;18.976;2023-06-19T00:48:51;99711.69;;;20.67;55.45
65666;BME280;52365;47.464;18.976;2023-06-19T00:49:14;99718.66;;;20.81;54.95
65666;BME280;52365;47.464;18.976;2023-06-19T00:49:35;99709.63;;;20.08;56.13
65666;BME280;52365;47.464;18.976;2023-06-19T00:49:57;99718.50;;;19.58;57.84
65666;BME280;52365;47.464;18.976;2023-06-19T00:50:18;99717.13;;;19.27;58.99
65666;BME280;52365;47.464;18.976;2023-06-19T00:50:39;99718.87;;;19.05;59.79
65666;BME280;52365;47.464;18.976;2023-06-19T00:51:00;99712.84;;;18.88;60.47
65666;BME280;52365;47.464;18.976;2023-06-19T00:51:22;99721.41;;;18.73;61.00
65666;BME280;52365;47.464;18.976;2023-06-19T00:51:43;99713.06;;;18.60;61.47
65666;BME280;52365;47.464;18.976;2023-06-19T00:52:04;99720.31;;;18.52;61.88
65666;BME280;52365;47.464;18.976;2023-06-19T00:52:25;99721.34;;;18.49;62.12
65666;BME280;52365;47.464;18.976;2023-06-19T00:52:46;99713.25;;;18.37;62.37
65666;BME280;52365;47.464;18.976;2023-06-19T00:53:08;99716.97;;;18.40;62.52
65666;BME280;52365;47.464;18.976;2023-06-19T00:53:30;99715.44;;;18.39;62.56
65666;BME280;52365;47.464;18.976;2023-06-19T00:53:52;99721.22;;;18.35;62.63
65666;BME280;52365;47.464;18.976;2023-06-19T00:54:13;99718.00;;;18.31;62.76
65666;BME280;52365;47.464;18.976;2023-06-19T00:54:35;99716.09;;;18.21;63.14
65666;BME280;52365;47.464;18.976;2023-06-19T00:54:56;99720.81;;;18.20;63.28
65666;BME280;52365;47.464;18.976;2023-06-19T00:55:17;99718.34;;;18.22;63.32
65666;BME280;52365;47.464;18.976;2023-06-19T00:55:39;99719.06;;;18.23;63.32
65666;BME280;52365;47.464;18.976;2023-06-19T00:55:56;99719.56;;;18.21;63.41
65666;BME280;52365;47.464;18.976;2023-06-19T00:56:17;99711.84;;;18.25;63.33
65666;BME280;52365;47.464;18.976;2023-06-19T00:56:39;99716.81;;;18.27;63.25
65666;BME280;52365;47.464;18.976;2023-06-19T00:57:02;99720.75;;;18.26;63.30
65666;BME280;52365;47.464;18.976;2023-06-19T00:57:23;99719.53;;;18.27;63.30
65666;BME280;52365;47.464;18.976;2023-06-19T00:57:45;99719.06;;;18.23;63.29
65666;BME280;52365;47.464;18.976;2023-06-19T00:58:06;99717.13;;;18.18;63.40
65666;BME280;52365;47.464;18.976;2023-06-19T00:58:27;99717.56;;;18.22;63.37
65666;BME280;52365;47.464;18.976;2023-06-19T00:58:48;99718.09;;;18.20;63.40
65666;BME280;52365;47.464;18.976;2023-06-19T00:59:16;99716.84;;;18.21;63.36
65666;BME280;52365;47.464;18.976;2023-06-19T00:59:38;99722.50;;;18.29;63.17
65666;BME280;52365;47.464;18.976;2023-06-19T00:59:59;99714.56;;;18.31;62.98
65666;BME280;52365;47.464;18.976;2023-06-19T01:00:20;99719.81;;;18.23;63.13
65666;BME280;52365;47.464;18.976;2023-06-19T01:00:41;99712.88;;;18.22;63.22
65666;BME280;52365;47.464;18.976;2023-06-19T01:01:03;99723.03;;;18.22;63.24
65666;BME280;52365;47.464;18.976;2023-06-19T01:01:24;99722.53;;;18.23;63.23
65666;BME280;52365;47.464;18.976;2023-06-19T01:01:46;99714.56;;;18.25;63.12
65666;BME280;52365;47.464;18.976;2023-06-19T01:02:07;99716.81;;;18.27;63.06
65666;BME280;52365;47.464;18.976;2023-06-19T01:02:29;99713.34;;;18.26;63.01
65666;BME280;52365;47.464;18.976;2023-06-19T01:02:50;99712.88;;;18.22;63.05
65666;BME280;52365;47.464;18.976;2023-06-19T01:03:11;99718.41;;;18.11;63.21
65666;BME280;52365;47.464;18.976;2023-06-19T01:03:32;99713.72;;;18.06;63.30
65666;BME280;52365;47.464;18.976;2023-06-19T01:03:53;99716.19;;;18.04;63.56
65666;BME280;52365;47.464;18.976;2023-06-19T01:04:14;99717.97;;;18.01;63.80
65666;BME280;52365;47.464;18.976;2023-06-19T01:04:35;99716.91;;;18.10;63.68
65666;BME280;52365;47.464;18.976;2023-06-19T01:04:56;99715.44;;;18.09;63.73
65666;BME280;52365;47.464;18.976;2023-06-19T01:05:17;99708.78;;;18.04;64.02
65666;BME280;52365;47.464;18.976;2023-06-19T01:05:40;99714.03;;;17.97;64.45
65666;BME280;52365;47.464;18.976;2023-06-19T01:06:01;99719.97;;;18.01;64.42
65666;BME280;52365;47.464;18.976;2023-06-19T01:06:28;99717.94;;;18.07;64.32
65666;BME280;52365;47.464;18.976;2023-06-19T01:07:05;99716.84;;;18.21;63.93
65666;BME280;52365;47.464;18.976;2023-06-19T01:07:43;99714.25;;;18.34;63.24
65666;BME280;52365;47.464;18.976;2023-06-19T01:08:41;99713.03;;;18.30;63.27
65666;BME280;52365;47.464;18.976;2023-06-19T01:09:11;99711.50;;;18.40;62.88
65666;BME280;52365;47.464;18.976;2023-06-19T01:09:38;99712.44;;;18.43;62.76
65666;BME280;52365;47.464;18.976;2023-06-19T01:09:59;99707.25;;;18.45;62.67
65666;BME280;52365;47.464;18.976;2023-06-19T01:10:28;99711.31;;;18.32;62.86
65666;BME280;52365;47.464;18.976;2023-06-19T01:10:54;99714.88;;;18.16;63.42
65666;BME280;52365;47.464;18.976;2023-06-19T01:11:20;99712.25;;;18.05;63.86
65666;BME280;52365;47.464;18.976;2023-06-19T01:11:48;99717.47;;;18.03;64.06
65666;BME280;52365;47.464;18.976;2023-06-19T01:12:16;99710.75;;;18.04;64.08
65666;BME280;52365;47.464;18.976;2023-06-19T01:12:44;99713.38;;;18.21;63.64
65666;BME280;52365;47.464;18.976;2023-06-19T01:13:27;99709.91;;;18.20;63.48
65666;BME280;52365;47.464;18.976;2023-06-19T01:13:55;99711.09;;;18.25;63.28
65666;BME280;52365;47.464;18.976;2023-06-19T01:14:26;99710.50;;;18.37;63.03
65666;BME280;52365;47.464;18.976;2023-06-19T01:14:58;99714.25;;;18.34;62.88
65666;BME280;52365;47.464;18.976;2023-06-19T01:15:19;99708.84;;;18.29;63.11
65666;BME280;52365;47.464;18.976;2023-06-19T01:15:41;99712.22;;;18.41;62.87
65666;BME280;52365;47.464;18.976;2023-06-19T01:16:04;99705.19;;;18.51;62.60
65666;BME280;52365;47.464;18.976;2023-06-19T01:16:26;99718.31;;;18.52;62.49
65666;BME280;52365;47.464;18.976;2023-06-19T01:16:48;99705.09;;;18.62;62.22
65666;BME280;52365;47.464;18.976;2023-06-19T01:17:10;99705.84;;;18.62;62.14
65666;BME280;52365;47.464;18.976;2023-06-19T01:17:31;99705.91;;;18.57;62.17
65666;BME280;52365;47.464;18.976;2023-06-19T01:17:55;99712.44;;;18.48;62.42
65666;BME280;52365;47.464;18.976;2023-06-19T01:18:17;99709.00;;;18.42;62.64
65666;BME280;52365;47.464;18.976;2023-06-19T01:18:38;99703.00;;;18.49;62.59
65666;BME280;52365;47.464;18.976;2023-06-19T01:19:00;99704.72;;;18.47;62.48
65666;BME280;52365;47.464;18.976;2023-06-19T01:19:21;99698.81;;;18.43;62.60
65666;BME280;52365;47.464;18.976;2023-06-19T01:19:42;99706.66;;;18.52;62.53
65666;BME280;52365;47.464;18.976;2023-06-19T01:20:04;99711.78;;;18.61;62.15
65666;BME280;52365;47.464;18.976;2023-06-19T01:20:31;99712.50;;;18.67;61.86
65666;BME280;52365;47.464;18.976;2023-06-19T01:20:54;99704.22;;;18.78;61.51
65666;BME280;52365;47.464;18.976;2023-06-19T01:21:16;99697.69;;;18.87;61.13
65666;BME280;52365;47.464;18.976;2023-06-19T01:21:38;99703.09;;;18.93;60.89
65666;BME280;52365;47.464;18.976;2023-06-19T01:22:02;99706.75;;;19.01;60.46
65666;BME280;52365;47.464;18.976;2023-06-19T01:22:27;99704.34;;;18.92;60.64
65666;BME280;52365;47.464;18.976;2023-06-19T01:22:48;99704.28;;;18.73;61.02
65666;BME280;52365;47.464;18.976;2023-06-19T01:23:10;99708.91;;;18.53;61.61
65666;BME280;52365;47.464;18.976;2023-06-19T01:23:32;99703.47;;;18.48;62.00
65666;BME280;52365;47.464;18.976;2023-06-19T01:23:53;99701.66;;;18.31;62.42
65666;BME280;52365;47.464;18.976;2023-06-19T01:24:14;99703.66;;;18.25;62.82
65666;BME280;52365;47.464;18.976;2023-06-19T01:24:35;99710.09;;;18.28;62.99
65666;BME280;52365;47.464;18.976;2023-06-19T01:24:56;99716.75;;;18.32;62.89
65666;BME280;52365;47.464;18.976;2023-06-19T01:25:18;99712.69;;;18.45;62.51
65666;BME280;52365;47.464;18.976;2023-06-19T01:25:39;99710.19;;;18.47;62.21
65666;BME280;52365;47.464;18.976;2023-06-19T01:26:00;99708.78;;;18.40;62.22
65666;BME280;52365;47.464;18.976;2023-06-19T01:26:22;99709.03;;;18.36;62.39
65666;BME280;52365;47.464;18.976;2023-06-19T01:26:47;99703.91;;;18.27;62.55
65666;BME280;52365;47.464;18.976;2023-06-19T01:27:08;99712.41;;;18.18;62.89
65666;BME280;52365;47.464;18.976;2023-06-19T01:27:29;99709.69;;;18.12;63.20
65666;BME280;52365;47.464;18.976;2023-06-19T01:27:51;99703.03;;;18.14;63.32
65666;BME280;52365;47.464;18.976;2023-06-19T01:28:12;99703.97;;;18.16;63.34
65666;BME280;52365;47.464;18.976;2023-06-19T01:28:38;99708.16;;;18.23;63.20
65666;BME280;52365;47.464;18.976;2023-06-19T01:29:00;99705.84;;;18.32;62.93
65666;BME280;52365;47.464;18.976;2023-06-19T01:29:21;99701.53;;;18.43;62.54
65666;BME280;52365;47.464;18.976;2023-06-19T01:29:42;99707.78;;;18.37;62.47
65666;BME280;52365;47.464;18.976;2023-06-19T01:30:04;99708.72;;;18.46;62.39
65666;BME280;52365;47.464;18.976;2023-06-19T01:30:25;99707.72;;;18.49;62.21
65666;BME280;52365;47.464;18.976;2023-06-19T01:30:46;99711.13;;;18.55;62.00
65666;BME280;52365;47.464;18.976;2023-06-19T01:31:31;99704.66;;;18.58;61.89
65666;BME280;52365;47.464;18.976;2023-06-19T01:32:10;99705.19;;;18.51;61.94
65666;BME280;52365;47.464;18.976;2023-06-19T01:32:57;99706.84;;;18.59;61.72
65666;BME280;52365;47.464;18.976;2023-06-19T01:33:25;99707.25;;;18.45;62.00
65666;BME280;52365;47.464;18.976;2023-06-19T01:33:47;99711.94;;;18.14;62.87
65666;BME280;52365;47.464;18.976;2023-06-19T01:34:10;99708.28;;;18.06;63.26
65666;BME280;52365;47.464;18.976;2023-06-19T01:34:33;99704.34;;;18.01;63.53
65666;BME280;52365;47.464;18.976;2023-06-19T01:34:55;99706.31;;;18.01;63.65
65666;BME280;52365;47.464;18.976;2023-06-19T01:35:19;99704.56;;;18.03;63.61
65666;BME280;52365;47.464;18.976;2023-06-19T01:35:43;99697.38;;;18.06;63.55
65666;BME280;52365;47.464;18.976;2023-06-19T01:36:06;99703.03;;;18.08;63.44
65666;BME280;52365;47.464;18.976;2023-06-19T01:36:28;99695.87;;;18.05;63.45
65666;BME280;52365;47.464;18.976;2023-06-19T01:36:50;99701.38;;;17.99;63.67
65666;BME280;52365;47.464;18.976;2023-06-19T01:37:12;99695.16;;;17.99;63.76
65666;BME280;52365;47.464;18.976;2023-06-19T01:37:33;99692.72;;;17.95;63.83
65666;BME280;52365;47.464;18.976;2023-06-19T01:37:54;99696.94;;;17.96;63.84
65666;BME280;52365;47.464;18.976;2023-06-19T01:38:17;99692.75;;;17.90;63.89
65666;BME280;52365;47.464;18.976;2023-06-19T01:38:39;99698.22;;;17.90;63.98
65666;BME280;52365;47.464;18.976;2023-06-19T01:38:57;99695.72;;;17.92;63.96
65666;BME280;52365;47.464;18.976;2023-06-19T01:39:19;99693.00;;;17.92;63.94
65666;BME280;52365;47.464;18.976;2023-06-19T01:39:42;99695.22;;;17.93;63.89
65666;BME280;52365;47.464;18.976;2023-06-19T01:40:05;99692.22;;;17.97;63.78
65666;BME280;52365;47.464;18.976;2023-06-19T01:40:29;99689.22;;;18.00;63.65
65666;BME280;52365;47.464;18.976;2023-06-19T01:40:53;99683.94;;;18.08;63.44
65666;BME280;52365;47.464;18.976;2023-06-19T01:41:16;99691.88;;;18.11;63.31
65666;BME280;52365;47.464;18.976;2023-06-19T01:41:38;99687.87;;;18.12;63.20
65666;BME280;52365;47.464;18.976;2023-06-19T01:42:00;99691.13;;;18.11;63.23
65666;BME280;52365;47.464;18.976;2023-06-19T01:42:22;99687.87;;;18.12;63.22
65666;BME280;52365;47.464;18.976;2023-06-19T01:42:43;99689.88;;;18.12;63.22
65666;BME280;52365;47.464;18.976;2023-06-19T01:43:05;99685.16;;;18.12;63.18
65666;BME280;52365;47.464;18.976;2023-06-19T01:43:29;99684.94;;;18.10;63.17
65666;BME280;52365;47.464;18.976;2023-06-19T01:43:53;99684.41;;;18.12;63.15
65666;BME280;52365;47.464;18.976;2023-06-19T01:44:15;99685.81;;;18.24;62.87
65666;BME280;52365;47.464;18.976;2023-06-19T01:44:36;99686.50;;;18.30;62.53
65666;BME280;52365;47.464;18.976;2023-06-19T01:44:57;99680.31;;;18.30;62.42
65666;BME280;52365;47.464;18.976;2023-06-19T01:45:18;99693.47;;;18.26;62.49
65666;BME280;52365;47.464;18.976;2023-06-19T01:45:39;99688.53;;;18.24;62.58
65666;BME280;52365;47.464;18.976;2023-06-19T01:46:00;99684.09;;;18.21;62.66
65666;BME280;52365;47.464;18.976;2023-06-19T01:46:21;99686.09;;;18.21;62.68
65666;BME280;52365;47.464;18.976;2023-06-19T01:46:43;99688.59;;;18.19;62.72
65666;BME280;52365;47.464;18.976;2023-06-19T01:47:10;99690.25;;;18.27;62.65
65666;BME280;52365;47.464;18.976;2023-06-19T01:47:32;99683.88;;;18.49;62.13
65666;BME280;52365;47.464;18.976;2023-06-19T01:47:53;99688.28;;;18.58;61.78
65666;BME280;52365;47.464;18.976;2023-06-19T01:48:14;99686.81;;;18.51;61.83
65666;BME280;52365;47.464;18.976;2023-06-19T01:48:37;99687.87;;;18.48;62.08
65666;BME280;52365;47.464;18.976;2023-06-19T01:48:58;99689.16;;;18.42;62.21
65666;BME280;52365;47.464;18.976;2023-06-19T01:49:20;99692.44;;;18.34;62.48
65666;BME280;52365;47.464;18.976;2023-06-19T01:49:41;99683.34;;;18.21;62.83
65666;BME280;52365;47.464;18.976;2023-06-19T01:50:02;99692.78;;;18.20;63.08
65666;BME280;52365;47.464;18.976;2023-06-19T01:50:23;99686.81;;;18.27;63.06
65666;BME280;52365;47.464;18.976;2023-06-19T01:50:48;99684.03;;;18.32;62.93
65666;BME280;52365;47.464;18.976;2023-06-19T01:51:09;99685.16;;;18.43;62.57
65666;BME280;52365;47.464;18.976;2023-06-19T01:51:25;99689.09;;;18.47;62.25
65666;BME280;52365;47.464;18.976;2023-06-19T01:51:46;99688.34;;;18.47;62.18
65666;BME280;52365;47.464;18.976;2023-06-19T01:52:08;99684.94;;;18.41;62.28
65666;BME280;52365;47.464;18.976;2023-06-19T01:52:29;99689.69;;;18.34;62.44
65666;BME280;52365;47.464;18.976;2023-06-19T01:52:50;99693.00;;;18.27;62.66
65666;BME280;52365;47.464;18.976;2023-06-19T01:53:11;99676.44;;;18.20;62.88
65666;BME280;52365;47.464;18.976;2023-06-19T01:53:32;99683.63;;;18.17;63.06
65666;BME280;52365;47.464;18.976;2023-06-19T01:53:55;99685.12;;;18.18;63.13
65666;BME280;52365;47.464;18.976;2023-06-19T01:54:16;99683.19;;;18.13;63.22
65666;BME280;52365;47.464;18.976;2023-06-19T01:54:37;99683.69;;;18.11;63.31
65666;BME280;52365;47.464;18.976;2023-06-19T01:54:58;99679.44;;;18.16;63.26
65666;BME280;52365;47.464;18.976;2023-06-19T01:55:20;99689.09;;;18.17;63.21
65666;BME280;52365;47.464;18.976;2023-06-19T01:55:41;99684.66;;;18.14;63.30
65666;BME280;52365;47.464;18.976;2023-06-19T01:56:02;99680.00;;;18.09;63.32
65666;BME280;52365;47.464;18.976;2023-06-19T01:56:23;99681.75;;;18.06;63.33
65666;BME280;52365;47.464;18.976;2023-06-19T01:56:45;99680.75;;;18.04;63.30
65666;BME280;52365;47.464;18.976;2023-06-19T01:57:06;99678.06;;;17.98;63.55